createdAt,value
2017-06-11T00:01:56.369Z,21.02
2017-06-11T00:04:24.335Z,20.94
2017-06-11T00:06:51.966Z,20.91
2017-06-11T00:09:19.655Z,20.88
2017-06-11T00:11:49.394Z,20.92
2017-06-11T00:14:17.003Z,20.92
2017-06-11T00:16:44.572Z,21.23
2017-06-11T00:19:12.097Z,21.25
2017-06-11T00:21:39.938Z,21.24
2017-06-11T00:24:07.506Z,21.14
2017-06-11T00:26:35.053Z,21.15
2017-06-11T00:29:02.587Z,20.94
2017-06-11T00:31:30.181Z,20.95
2017-06-11T00:33:57.718Z,20.64
2017-06-11T00:36:25.257Z,20.81
2017-06-11T00:38:52.837Z,20.77
2017-06-11T00:41:20.376Z,20.91
2017-06-11T00:43:47.915Z,20.48
2017-06-11T00:46:15.509Z,20.37
2017-06-11T00:48:43.049Z,20.30
2017-06-11T00:51:10.586Z,20.08
2017-06-11T00:53:38.162Z,20.11
2017-06-11T00:56:05.698Z,20.38
2017-06-11T00:58:33.590Z,20.27
2017-06-11T01:01:01.182Z,20.34
2017-06-11T01:03:28.718Z,20.33
2017-06-11T01:05:56.249Z,20.20
2017-06-11T01:08:23.822Z,20.07
2017-06-11T01:10:51.365Z,19.80
2017-06-11T01:13:18.914Z,19.86
2017-06-11T01:15:46.482Z,19.89
2017-06-11T01:18:14.012Z,20.04
2017-06-11T01:20:41.542Z,20.27
2017-06-11T01:23:09.138Z,20.19
2017-06-11T01:25:36.694Z,19.89
2017-06-11T01:28:04.271Z,20.13
2017-06-11T01:30:31.963Z,19.82
2017-06-11T01:32:59.496Z,19.69
2017-06-11T01:35:27.047Z,19.50
2017-06-11T01:37:54.628Z,19.79
2017-06-11T01:40:22.159Z,19.80
2017-06-11T01:42:49.712Z,20.15
2017-06-11T01:45:17.302Z,20.07
2017-06-11T01:47:44.838Z,19.89
2017-06-11T01:50:12.379Z,19.72
2017-06-11T01:52:39.970Z,20.06
2017-06-11T01:55:07.505Z,19.92
2017-06-11T01:57:35.033Z,19.98
2017-06-11T02:00:02.597Z,19.72
2017-06-11T02:02:30.520Z,19.82
2017-06-11T02:04:58.318Z,19.89
2017-06-11T02:07:25.852Z,19.65
2017-06-11T02:09:53.423Z,19.76
2017-06-11T02:12:20.958Z,19.78
2017-06-11T02:14:48.498Z,19.41
2017-06-11T02:17:16.066Z,19.29
2017-06-11T02:19:43.598Z,19.09
2017-06-11T02:22:11.132Z,19.00
2017-06-11T02:24:38.711Z,18.94
2017-06-11T02:27:06.254Z,18.78
2017-06-11T02:29:34.378Z,18.80
2017-06-11T02:32:02.078Z,18.82
2017-06-11T02:34:29.623Z,18.58
2017-06-11T02:36:57.157Z,18.41
2017-06-11T02:39:24.723Z,18.33
2017-06-11T02:41:52.261Z,18.36
2017-06-11T02:44:19.800Z,18.32
2017-06-11T02:46:47.396Z,18.38
2017-06-11T02:49:14.938Z,18.94
2017-06-11T02:51:42.486Z,18.86
2017-06-11T02:54:10.054Z,18.75
2017-06-11T02:56:37.589Z,18.76
2017-06-11T02:59:05.129Z,18.48
2017-06-11T03:01:32.711Z,18.20
2017-06-11T03:04:00.245Z,18.22
2017-06-11T03:06:27.777Z,18.70
2017-06-11T03:08:55.352Z,18.87
2017-06-11T03:11:22.927Z,18.73
2017-06-11T03:13:50.466Z,18.98
2017-06-11T03:16:18.030Z,18.86
2017-06-11T03:18:45.580Z,18.62
2017-06-11T03:21:13.109Z,18.80
2017-06-11T03:23:40.678Z,18.69
2017-06-11T03:26:08.206Z,18.77
2017-06-11T03:28:35.743Z,18.82
2017-06-11T03:31:03.329Z,18.98
2017-06-11T03:33:30.893Z,18.74
2017-06-11T03:35:58.428Z,19.13
2017-06-11T03:38:25.997Z,19.16
2017-06-11T03:40:53.551Z,19.09
2017-06-11T03:43:21.157Z,19.11
2017-06-11T03:45:48.719Z,18.94
2017-06-11T03:48:16.259Z,18.83
2017-06-11T03:50:43.788Z,18.93
2017-06-11T03:53:11.362Z,19.04
2017-06-11T03:55:38.901Z,18.95
2017-06-11T03:58:06.434Z,18.91
2017-06-11T04:00:34.011Z,19.06
2017-06-11T04:03:01.539Z,18.59
2017-06-11T04:05:29.074Z,18.70
2017-06-11T04:07:56.664Z,18.33
2017-06-11T04:10:24.214Z,18.19
2017-06-11T04:12:51.750Z,18.38
2017-06-11T04:15:19.313Z,18.61
2017-06-11T04:17:46.921Z,18.57
2017-06-11T04:20:14.452Z,18.55
2017-06-11T04:22:42.013Z,18.47
2017-06-11T04:25:09.545Z,18.70
2017-06-11T04:27:37.094Z,18.70
2017-06-11T04:30:07.036Z,18.83
2017-06-11T04:32:34.570Z,18.81
2017-06-11T04:35:02.109Z,18.86
2017-06-11T04:37:29.669Z,18.85
2017-06-11T04:39:57.210Z,19.06
2017-06-11T04:42:24.777Z,18.58
2017-06-11T04:44:52.348Z,18.95
2017-06-11T04:47:19.894Z,19.00
2017-06-11T04:49:47.430Z,18.51
2017-06-11T04:52:15.010Z,18.84
2017-06-11T04:54:42.562Z,18.95
2017-06-11T04:57:10.106Z,19.02
2017-06-11T04:59:37.686Z,19.23
2017-06-11T05:02:05.287Z,19.14
2017-06-11T05:04:32.828Z,19.20
2017-06-11T05:07:00.370Z,19.04
2017-06-11T05:09:27.957Z,18.79
2017-06-11T05:11:55.494Z,19.03
2017-06-11T05:14:23.202Z,18.93
2017-06-11T05:16:50.774Z,19.01
2017-06-11T05:19:18.317Z,19.13
2017-06-11T05:21:45.873Z,19.14
2017-06-11T05:24:13.446Z,19.17
2017-06-11T05:26:40.986Z,19.36
2017-06-11T05:29:08.521Z,19.15
2017-06-11T05:31:36.135Z,19.33
2017-06-11T05:34:03.698Z,19.23
2017-06-11T05:36:31.238Z,18.98
2017-06-11T05:38:58.815Z,19.22
2017-06-11T05:41:26.347Z,19.18
2017-06-11T05:43:53.885Z,19.03
2017-06-11T05:46:21.479Z,18.93
2017-06-11T05:48:49.019Z,19.27
2017-06-11T05:51:16.603Z,19.66
2017-06-11T05:53:44.174Z,19.89
2017-06-11T05:56:11.709Z,20.03
2017-06-11T05:58:39.267Z,20.14
2017-06-11T06:01:06.838Z,20.22
2017-06-11T06:03:34.421Z,20.26
2017-06-11T06:06:01.962Z,20.08
2017-06-11T06:08:29.538Z,20.21
2017-06-11T06:10:57.083Z,20.26
2017-06-11T06:13:24.611Z,20.22
2017-06-11T06:15:52.189Z,20.28
2017-06-11T06:18:19.723Z,20.30
2017-06-11T06:20:47.250Z,20.27
2017-06-11T06:23:14.809Z,20.34
2017-06-11T06:25:42.332Z,20.24
2017-06-11T06:28:09.872Z,20.37
2017-06-11T06:30:37.454Z,19.75
2017-06-11T06:33:04.993Z,19.83
2017-06-11T06:35:32.528Z,18.70
2017-06-11T06:38:00.103Z,18.48
2017-06-11T06:40:27.636Z,18.57
2017-06-11T06:42:55.169Z,18.58
2017-06-11T06:45:22.760Z,19.46
2017-06-11T06:47:50.516Z,19.66
2017-06-11T06:50:18.127Z,19.02
2017-06-11T06:52:45.789Z,19.05
2017-06-11T06:55:13.573Z,19.20
2017-06-11T06:57:41.106Z,19.34
2017-06-11T07:00:08.791Z,19.81
2017-06-11T07:02:36.328Z,19.76
2017-06-11T07:05:03.915Z,19.86
2017-06-11T07:07:31.550Z,19.63
2017-06-11T07:09:59.082Z,20.12
2017-06-11T07:12:27.285Z,19.85
2017-06-11T07:14:54.890Z,20.19
2017-06-11T07:17:22.429Z,19.90
2017-06-11T07:19:49.966Z,20.30
2017-06-11T07:22:17.552Z,19.91
2017-06-11T07:24:45.083Z,20.18
2017-06-11T07:27:12.619Z,20.03
2017-06-11T07:29:40.686Z,20.32
2017-06-11T07:32:08.274Z,20.00
2017-06-11T07:34:36.186Z,20.03
2017-06-11T07:37:03.726Z,19.74
2017-06-11T07:39:31.304Z,19.57
2017-06-11T07:41:59.450Z,19.77
2017-06-11T07:44:26.982Z,19.86
2017-06-11T07:46:54.914Z,20.13
2017-06-11T07:49:22.450Z,19.92
2017-06-11T07:51:49.985Z,19.97
2017-06-11T07:54:17.961Z,20.07
2017-06-11T07:56:45.884Z,20.31
2017-06-11T07:59:13.784Z,20.46
2017-06-11T08:01:41.345Z,20.38
2017-06-11T08:04:09.338Z,19.84
2017-06-11T08:06:36.879Z,20.01
2017-06-11T08:09:04.490Z,20.27
2017-06-11T08:11:32.026Z,20.43
2017-06-11T08:13:59.589Z,20.62
2017-06-11T08:16:27.169Z,20.63
2017-06-11T08:18:54.711Z,20.28
2017-06-11T08:21:22.556Z,20.66
2017-06-11T08:23:50.257Z,21.23
2017-06-11T08:26:17.834Z,21.49
2017-06-11T08:28:45.378Z,21.14
2017-06-11T08:31:12.975Z,21.23
2017-06-11T08:33:40.532Z,21.46
2017-06-11T08:36:09.379Z,21.54
2017-06-11T08:38:38.144Z,21.49
2017-06-11T08:41:05.727Z,21.44
2017-06-11T08:43:33.273Z,21.34
2017-06-11T08:46:01.321Z,21.38
2017-06-11T08:48:28.899Z,21.58
2017-06-11T08:50:56.446Z,21.70
2017-06-11T08:53:24.110Z,21.88
2017-06-11T08:55:53.647Z,21.94
2017-06-11T08:58:21.758Z,22.10
2017-06-11T09:00:49.358Z,21.93
2017-06-11T09:03:17.392Z,22.11
2017-06-11T09:05:46.010Z,22.26
2017-06-11T09:08:13.613Z,22.10
2017-06-11T09:10:41.294Z,22.10
2017-06-11T09:13:08.925Z,22.34
2017-06-11T09:15:36.844Z,22.50
2017-06-11T09:18:04.794Z,22.55
2017-06-11T09:20:32.345Z,22.67
2017-06-11T09:22:59.943Z,22.89
2017-06-11T09:25:27.686Z,22.88
2017-06-11T09:27:55.585Z,22.77
2017-06-11T09:30:23.162Z,22.71
2017-06-11T09:32:50.717Z,22.94
2017-06-11T09:35:18.260Z,22.78
2017-06-11T09:37:46.429Z,22.76
2017-06-11T09:40:13.970Z,23.05
2017-06-11T09:42:41.551Z,23.09
2017-06-11T09:45:09.137Z,23.09
2017-06-11T09:47:36.945Z,23.26
2017-06-11T09:50:04.491Z,23.10
2017-06-11T09:52:32.065Z,22.90
2017-06-11T09:54:59.611Z,23.31
2017-06-11T09:57:27.159Z,23.73
2017-06-11T09:59:54.745Z,24.31
2017-06-11T10:02:22.329Z,24.00
2017-06-11T10:04:49.879Z,24.07
2017-06-11T10:07:17.415Z,24.04
2017-06-11T10:09:44.990Z,23.42
2017-06-11T10:12:12.539Z,23.42
2017-06-11T10:14:40.101Z,23.82
2017-06-11T10:17:07.687Z,23.23
2017-06-11T10:19:35.320Z,23.39
2017-06-11T10:22:02.928Z,23.39
2017-06-11T10:24:30.530Z,23.29
2017-06-11T10:26:58.090Z,22.94
2017-06-11T10:29:25.633Z,23.17
2017-06-11T10:31:53.205Z,23.25
2017-06-11T10:34:20.767Z,23.34
2017-06-11T10:36:48.309Z,22.78
2017-06-11T10:39:15.882Z,22.79
2017-06-11T10:41:43.415Z,22.77
2017-06-11T10:44:10.981Z,23.46
2017-06-11T10:46:38.573Z,23.58
2017-06-11T10:49:06.112Z,23.12
2017-06-11T10:51:33.651Z,22.72
2017-06-11T10:54:01.245Z,23.52
2017-06-11T10:56:28.809Z,23.78
2017-06-11T10:58:56.345Z,23.43
2017-06-11T11:01:23.930Z,24.18
2017-06-11T11:03:51.466Z,24.26
2017-06-11T11:06:19.002Z,24.46
2017-06-11T11:08:46.625Z,24.75
2017-06-11T11:11:14.186Z,24.78
2017-06-11T11:13:41.734Z,24.68
2017-06-11T11:16:09.294Z,24.99
2017-06-11T11:18:37.293Z,24.64
2017-06-11T11:21:04.874Z,24.43
2017-06-11T11:23:32.450Z,24.81
2017-06-11T11:25:59.986Z,24.86
2017-06-11T11:28:27.538Z,24.49
2017-06-11T11:30:55.102Z,24.75
2017-06-11T11:33:22.657Z,25.03
2017-06-11T11:35:50.469Z,25.11
2017-06-11T11:38:18.043Z,25.34
2017-06-11T11:40:45.582Z,25.31
2017-06-11T11:43:13.346Z,25.33
2017-06-11T11:45:40.937Z,25.08
2017-06-11T11:48:08.477Z,24.84
2017-06-11T11:50:36.056Z,24.84
2017-06-11T11:53:03.631Z,25.31
2017-06-11T11:55:31.214Z,25.28
2017-06-11T11:57:58.758Z,24.75
2017-06-11T12:00:26.467Z,25.25
2017-06-11T12:02:54.061Z,25.09
2017-06-11T12:05:21.700Z,25.46
2017-06-11T12:07:49.325Z,25.59
2017-06-11T12:10:17.725Z,25.06
2017-06-11T12:12:46.010Z,25.56
2017-06-11T12:15:13.583Z,25.89
2017-06-11T12:17:41.122Z,25.23
2017-06-11T12:20:08.685Z,24.11
2017-06-11T12:22:36.288Z,24.66
2017-06-11T12:25:03.828Z,24.97
2017-06-11T12:27:31.373Z,24.88
2017-06-11T12:29:58.952Z,25.03
2017-06-11T12:32:26.927Z,24.55
2017-06-11T12:34:54.513Z,24.41
2017-06-11T12:37:22.056Z,24.73
2017-06-11T12:39:49.631Z,24.86
2017-06-11T12:42:17.170Z,24.66
2017-06-11T12:44:44.714Z,24.83
2017-06-11T12:47:12.302Z,24.61
2017-06-11T12:49:39.830Z,24.75
2017-06-11T12:52:07.380Z,24.91
2017-06-11T12:54:34.966Z,25.00
2017-06-11T12:57:02.489Z,24.89
2017-06-11T12:59:30.061Z,24.53
2017-06-11T13:01:57.635Z,24.89
2017-06-11T13:04:25.168Z,24.61
2017-06-11T13:06:52.698Z,24.77
2017-06-11T13:09:20.290Z,24.90
2017-06-11T13:11:48.424Z,24.67
2017-06-11T13:14:17.978Z,24.35
2017-06-11T13:16:45.894Z,24.21
2017-06-11T13:19:13.562Z,24.48
2017-06-11T13:21:41.118Z,24.81
2017-06-11T13:24:08.681Z,24.61
2017-06-11T13:26:36.246Z,24.64
2017-06-11T13:29:03.785Z,24.65
2017-06-11T13:31:31.354Z,24.57
2017-06-11T13:33:58.889Z,24.32
2017-06-11T13:36:26.417Z,25.01
2017-06-11T13:38:54.009Z,24.88
2017-06-11T13:41:21.543Z,24.97
2017-06-11T13:43:49.075Z,24.93
2017-06-11T13:46:16.670Z,25.07
2017-06-11T13:48:44.289Z,24.74
2017-06-11T13:51:11.814Z,24.78
2017-06-11T13:53:39.394Z,24.76
2017-06-11T13:56:06.931Z,24.71
2017-06-11T13:58:34.474Z,25.03
2017-06-11T14:01:02.046Z,25.01
2017-06-11T14:03:29.635Z,25.07
2017-06-11T14:05:57.199Z,24.99
2017-06-11T14:08:24.801Z,25.02
2017-06-11T14:10:54.078Z,25.10
2017-06-11T14:13:21.901Z,25.17
2017-06-11T14:15:49.483Z,25.09
2017-06-11T14:18:17.245Z,25.11
2017-06-11T14:20:44.777Z,24.85
2017-06-11T14:23:12.374Z,24.69
2017-06-11T14:25:39.933Z,24.72
2017-06-11T14:28:08.269Z,24.94
2017-06-11T14:30:35.837Z,25.02
2017-06-11T14:33:03.382Z,24.93
2017-06-11T14:35:30.923Z,24.97
2017-06-11T14:37:58.497Z,24.86
2017-06-11T14:40:26.134Z,24.46
2017-06-11T14:42:53.688Z,24.06
2017-06-11T14:45:21.266Z,23.99
2017-06-11T14:47:49.104Z,23.61
2017-06-11T14:50:16.646Z,23.94
2017-06-11T14:52:44.301Z,23.43
2017-06-11T14:55:11.830Z,23.13
2017-06-11T14:57:39.369Z,23.20
2017-06-11T15:00:07.603Z,23.27
2017-06-11T15:02:36.146Z,23.66
2017-06-11T15:05:03.689Z,23.70
2017-06-11T15:07:31.283Z,23.99
2017-06-11T15:09:59.219Z,24.21
2017-06-11T15:12:37.272Z,24.19
2017-06-11T15:15:08.561Z,24.24
2017-06-11T15:28:47.314Z,24.16
2017-06-11T15:31:15.153Z,24.10
2017-06-11T15:33:42.685Z,24.09
2017-06-11T15:36:35.180Z,24.00
2017-06-11T15:41:56.311Z,23.97
2017-06-11T15:44:23.869Z,23.92
2017-06-11T15:46:51.413Z,23.73
2017-06-11T15:49:18.985Z,23.82
2017-06-11T15:51:46.532Z,23.87
2017-06-11T15:54:14.061Z,23.88
2017-06-11T15:56:45.822Z,23.56
2017-06-11T15:59:19.473Z,23.28
2017-06-11T16:02:01.559Z,23.40
2017-06-11T16:04:36.929Z,23.58
2017-06-11T16:07:20.205Z,23.37
2017-06-11T16:09:48.574Z,23.35
2017-06-11T16:12:27.959Z,23.06
2017-06-11T16:15:14.166Z,23.16
2017-06-11T16:17:48.958Z,22.76
2017-06-11T16:20:25.586Z,22.95
2017-06-11T16:22:55.897Z,22.80
2017-06-11T16:25:33.891Z,22.93
2017-06-11T16:28:05.147Z,22.83
2017-06-11T16:30:32.894Z,22.42
2017-06-11T16:33:00.437Z,22.13
2017-06-11T16:35:28.550Z,22.19
2017-06-11T16:38:03.427Z,22.45
2017-06-11T16:40:31.091Z,22.14
2017-06-11T16:43:00.009Z,21.94
2017-06-11T16:45:39.868Z,22.00
2017-06-11T16:50:54.838Z,21.61
2017-06-11T16:53:26.138Z,21.57
2017-06-11T16:58:37.309Z,21.54
2017-06-11T17:01:06.861Z,21.31
2017-06-11T17:03:38.982Z,21.28
2017-06-11T17:06:07.404Z,21.18
2017-06-11T17:08:41.563Z,21.31
2017-06-11T17:11:19.761Z,21.07
2017-06-11T17:13:48.682Z,21.20
2017-06-11T17:16:20.716Z,21.15
2017-06-11T17:18:49.489Z,21.11
2017-06-11T17:21:18.066Z,21.14
2017-06-11T17:23:46.553Z,21.38
2017-06-11T17:26:14.171Z,21.56
2017-06-11T17:28:42.221Z,21.30
2017-06-11T17:31:12.530Z,21.19
2017-06-11T17:33:45.902Z,21.16
2017-06-11T17:36:13.677Z,21.36
2017-06-11T17:38:41.310Z,21.17
2017-06-11T17:44:01.642Z,21.71
2017-06-11T17:46:33.128Z,21.91
2017-06-11T17:51:46.937Z,21.55
2017-06-11T17:54:14.740Z,21.49
2017-06-11T17:56:42.432Z,21.55
2017-06-11T17:59:10.804Z,21.82
2017-06-11T18:01:38.415Z,21.59
2017-06-11T18:04:05.990Z,21.33
2017-06-11T18:06:33.601Z,21.23
2017-06-11T18:09:01.766Z,20.91
2017-06-11T18:11:29.340Z,20.91
2017-06-11T18:13:56.913Z,21.02
2017-06-11T18:16:29.372Z,21.03
2017-06-11T18:18:58.286Z,21.11
2017-06-11T18:21:26.205Z,21.05
2017-06-11T18:23:54.724Z,20.84
2017-06-11T18:26:22.364Z,20.84
2017-06-11T18:28:49.914Z,20.79
2017-06-11T18:31:22.331Z,20.84
2017-06-11T18:33:52.432Z,20.74
2017-06-11T18:36:21.770Z,20.75
2017-06-11T18:38:52.344Z,21.13
2017-06-11T18:41:27.158Z,20.93
2017-06-11T18:43:58.217Z,20.99
2017-06-11T18:46:29.056Z,20.98
2017-06-11T18:51:57.277Z,21.07
2017-06-11T18:54:29.030Z,21.04
2017-06-11T19:02:20.010Z,20.49
2017-06-11T19:04:48.206Z,20.65
2017-06-11T19:07:16.085Z,20.84
2017-06-11T19:09:43.736Z,20.76
2017-06-11T19:12:12.199Z,20.87
2017-06-11T19:14:39.787Z,20.39
2017-06-11T19:17:07.666Z,20.40
2017-06-11T19:19:35.255Z,20.58
2017-06-11T19:22:09.709Z,20.53
2017-06-11T19:24:41.560Z,20.83
2017-06-11T19:27:09.115Z,20.98
2017-06-11T19:37:57.388Z,21.36
2017-06-11T19:40:33.798Z,21.36
2017-06-11T19:43:23.956Z,21.12
2017-06-11T19:46:00.425Z,20.90
2017-06-11T19:48:35.210Z,20.88
2017-06-11T19:53:45.921Z,21.24
2017-06-11T19:56:18.283Z,21.36
2017-06-11T19:58:57.522Z,21.30
2017-06-11T20:01:36.667Z,21.22
2017-06-11T20:04:14.358Z,21.33
2017-06-11T20:09:59.035Z,21.38
2017-06-11T20:12:26.661Z,21.35
2017-06-11T20:14:54.218Z,21.34
2017-06-11T20:17:21.992Z,21.21
2017-06-11T20:19:49.574Z,21.23
2017-06-11T20:22:17.342Z,21.20
2017-06-11T20:24:44.918Z,21.15
2017-06-11T20:27:16.554Z,21.14
2017-06-11T20:29:45.341Z,21.11
2017-06-11T20:32:13.874Z,21.07
2017-06-11T20:34:41.835Z,20.96
2017-06-11T20:37:09.402Z,20.90
2017-06-11T20:39:36.993Z,20.73
2017-06-11T20:42:04.553Z,20.87
2017-06-11T20:44:33.769Z,20.91
2017-06-11T20:47:04.698Z,20.88
2017-06-11T20:49:38.149Z,20.84
2017-06-11T20:52:24.321Z,20.77
2017-06-11T20:54:59.748Z,20.53
2017-06-11T20:57:27.345Z,20.42
2017-06-11T20:59:54.893Z,20.50
2017-06-11T21:02:39.478Z,20.35
2017-06-11T21:05:08.762Z,20.68
2017-06-11T21:07:59.421Z,20.79
2017-06-11T21:10:40.256Z,20.83
2017-06-11T21:13:08.047Z,20.61
2017-06-11T21:15:36.893Z,20.62
2017-06-11T21:18:19.663Z,20.67
2017-06-11T21:20:47.631Z,20.75
2017-06-11T21:23:15.167Z,20.42
2017-06-11T21:25:42.745Z,20.73
2017-06-11T21:28:12.003Z,20.68
2017-06-11T21:31:11.766Z,20.51
2017-06-11T21:33:39.315Z,20.55
2017-06-11T21:36:07.129Z,20.32
2017-06-11T21:38:34.934Z,20.35
2017-06-11T21:41:02.492Z,20.22
2017-06-11T21:43:30.149Z,19.96
2017-06-11T21:45:57.731Z,20.02
2017-06-11T21:48:25.407Z,20.06
2017-06-11T21:50:52.981Z,20.09
2017-06-11T21:53:21.309Z,20.20
2017-06-11T21:55:48.904Z,20.28
2017-06-11T21:58:17.345Z,20.19
2017-06-11T22:00:44.952Z,19.80
2017-06-11T22:03:12.822Z,20.01
2017-06-11T22:05:40.589Z,20.05
2017-06-11T22:08:08.345Z,19.97
2017-06-11T22:10:36.005Z,19.90
2017-06-11T22:13:04.253Z,19.98
2017-06-11T22:15:32.025Z,19.99
2017-06-11T22:18:00.045Z,20.00
2017-06-11T22:20:27.618Z,20.00
2017-06-11T22:22:55.255Z,19.93
2017-06-11T22:25:22.834Z,19.88
2017-06-11T22:27:50.458Z,19.67
2017-06-11T22:30:19.006Z,19.79
2017-06-11T22:32:46.581Z,19.79
2017-06-11T22:35:14.142Z,19.79
2017-06-11T22:37:41.846Z,19.76
2017-06-11T22:40:09.456Z,19.64
2017-06-11T22:42:37.136Z,19.71
2017-06-11T22:45:04.772Z,19.59
2017-06-11T22:47:32.322Z,19.18
2017-06-11T22:49:59.871Z,19.18
2017-06-11T22:52:27.454Z,19.27
2017-06-11T22:54:54.988Z,19.49
2017-06-11T22:57:22.531Z,19.51
2017-06-11T22:59:50.116Z,19.40
2017-06-11T23:02:17.780Z,18.87
2017-06-11T23:04:45.347Z,19.14
2017-06-11T23:07:12.885Z,19.38
2017-06-11T23:09:40.465Z,19.22
2017-06-11T23:12:08.068Z,19.08
2017-06-11T23:14:35.627Z,19.29
2017-06-11T23:17:03.206Z,18.89
2017-06-11T23:19:30.741Z,19.09
2017-06-11T23:21:58.282Z,19.18
2017-06-11T23:24:25.891Z,18.69
2017-06-11T23:26:53.443Z,18.79
2017-06-11T23:29:21.082Z,18.85
2017-06-11T23:31:48.728Z,18.96
2017-06-11T23:34:16.291Z,19.12
2017-06-11T23:36:43.933Z,19.25
2017-06-11T23:39:11.622Z,19.34
2017-06-11T23:41:39.186Z,19.28
2017-06-11T23:44:06.753Z,18.94
2017-06-11T23:46:34.454Z,18.82
2017-06-11T23:49:02.152Z,18.87
2017-06-11T23:51:29.815Z,18.85
2017-06-11T23:53:57.441Z,17.94
2017-06-11T23:56:25.261Z,18.21
2017-06-11T23:58:52.841Z,18.61
